sensor_id;sensor_type;location;lat;lon;timestamp;P1;durP1;ratioP1;P2;durP2;ratioP2
45548;SDS011;31270;48.328;10.096;2024-03-23T00:55:37;7.20;;;5.03;;
45548;SDS011;31270;48.328;10.096;2024-03-23T00:58:21;10.23;;;5.17;;
45548;SDS011;31270;48.328;10.096;2024-03-23T01:01:06;9.17;;;4.57;;
45548;SDS011;31270;48.328;10.096;2024-03-23T01:03:53;7.10;;;4.70;;
45548;SDS011;31270;48.328;10.096;2024-03-23T01:06:37;6.23;;;4.93;;
45548;SDS011;31270;48.328;10.096;2024-03-23T01:09:21;10.23;;;5.70;;
45548;SDS011;31270;48.328;10.096;2024-03-23T01:12:06;8.90;;;5.10;;
45548;SDS011;31270;48.328;10.096;2024-03-23T01:14:51;6.67;;;5.07;;
45548;SDS011;31270;48.328;10.096;2024-03-23T01:17:35;6.83;;;5.57;;
45548;SDS011;31270;48.328;10.096;2024-03-23T01:20:21;8.07;;;5.60;;
45548;SDS011;31270;48.328;10.096;2024-03-23T01:23:07;7.67;;;5.80;;
45548;SDS011;31270;48.328;10.096;2024-03-23T01:25:56;8.53;;;5.70;;
45548;SDS011;31270;48.328;10.096;2024-03-23T01:28:40;6.77;;;4.83;;
45548;SDS011;31270;48.328;10.096;2024-03-23T01:31:26;8.23;;;4.93;;
45548;SDS011;31270;48.328;10.096;2024-03-23T01:34:13;8.57;;;5.43;;
45548;SDS011;31270;48.328;10.096;2024-03-23T01:36:57;6.37;;;5.37;;
45548;SDS011;31270;48.328;10.096;2024-03-23T01:39:42;10.67;;;5.77;;
45548;SDS011;31270;48.328;10.096;2024-03-23T01:42:26;6.87;;;5.57;;
45548;SDS011;31270;48.328;10.096;2024-03-23T01:45:10;11.77;;;5.60;;
45548;SDS011;31270;48.328;10.096;2024-03-23T01:47:54;7.30;;;5.73;;
45548;SDS011;31270;48.328;10.096;2024-03-23T01:50:38;9.77;;;5.33;;
45548;SDS011;31270;48.328;10.096;2024-03-23T01:53:23;8.37;;;6.50;;
45548;SDS011;31270;48.328;10.096;2024-03-23T01:56:07;6.77;;;5.67;;
45548;SDS011;31270;48.328;10.096;2024-03-23T01:58:51;7.70;;;6.10;;
45548;SDS011;31270;48.328;10.096;2024-03-23T02:01:35;9.10;;;5.73;;
45548;SDS011;31270;48.328;10.096;2024-03-23T02:04:19;9.63;;;6.20;;
45548;SDS011;31270;48.328;10.096;2024-03-23T02:07:03;8.73;;;5.83;;
45548;SDS011;31270;48.328;10.096;2024-03-23T02:09:50;8.60;;;6.40;;
45548;SDS011;31270;48.328;10.096;2024-03-23T02:12:35;13.23;;;7.07;;
45548;SDS011;31270;48.328;10.096;2024-03-23T02:15:20;10.03;;;7.23;;
45548;SDS011;31270;48.328;10.096;2024-03-23T02:18:04;9.73;;;7.17;;
45548;SDS011;31270;48.328;10.096;2024-03-23T02:20:49;8.00;;;6.70;;
45548;SDS011;31270;48.328;10.096;2024-03-23T02:23:33;7.20;;;6.47;;
45548;SDS011;31270;48.328;10.096;2024-03-23T02:26:17;9.40;;;6.67;;
45548;SDS011;31270;48.328;10.096;2024-03-23T02:29:01;8.87;;;6.93;;
45548;SDS011;31270;48.328;10.096;2024-03-23T02:31:45;10.93;;;6.97;;
45548;SDS011;31270;48.328;10.096;2024-03-23T02:34:29;8.43;;;7.07;;
45548;SDS011;31270;48.328;10.096;2024-03-23T02:37:13;8.47;;;6.80;;
45548;SDS011;31270;48.328;10.096;2024-03-23T02:39:58;10.60;;;7.17;;
45548;SDS011;31270;48.328;10.096;2024-03-23T02:42:43;9.57;;;7.07;;
45548;SDS011;31270;48.328;10.096;2024-03-23T02:45:27;10.83;;;7.47;;
45548;SDS011;31270;48.328;10.096;2024-03-23T02:48:12;9.73;;;7.20;;
45548;SDS011;31270;48.328;10.096;2024-03-23T02:50:56;11.53;;;7.60;;
45548;SDS011;31270;48.328;10.096;2024-03-23T02:53:41;9.23;;;7.23;;
45548;SDS011;31270;48.328;10.096;2024-03-23T02:56:25;11.90;;;7.13;;
45548;SDS011;31270;48.328;10.096;2024-03-23T02:59:09;9.73;;;7.03;;
45548;SDS011;31270;48.328;10.096;2024-03-23T03:01:54;10.43;;;7.33;;
45548;SDS011;31270;48.328;10.096;2024-03-23T03:04:38;11.40;;;7.30;;
45548;SDS011;31270;48.328;10.096;2024-03-23T03:07:25;9.80;;;7.30;;
45548;SDS011;31270;48.328;10.096;2024-03-23T03:10:09;11.23;;;7.57;;
45548;SDS011;31270;48.328;10.096;2024-03-23T03:12:55;12.63;;;8.47;;
45548;SDS011;31270;48.328;10.096;2024-03-23T03:15:40;10.50;;;7.77;;
45548;SDS011;31270;48.328;10.096;2024-03-23T03:18:26;11.67;;;7.30;;
45548;SDS011;31270;48.328;10.096;2024-03-23T03:21:10;12.77;;;9.17;;
45548;SDS011;31270;48.328;10.096;2024-03-23T03:23:54;14.17;;;8.50;;
45548;SDS011;31270;48.328;10.096;2024-03-23T03:26:40;10.83;;;7.57;;
45548;SDS011;31270;48.328;10.096;2024-03-23T03:29:24;10.77;;;7.90;;
45548;SDS011;31270;48.328;10.096;2024-03-23T03:32:09;11.37;;;7.77;;
45548;SDS011;31270;48.328;10.096;2024-03-23T03:34:53;10.00;;;7.57;;
45548;SDS011;31270;48.328;10.096;2024-03-23T03:37:37;8.83;;;7.57;;
45548;SDS011;31270;48.328;10.096;2024-03-23T03:40:21;9.03;;;7.50;;
45548;SDS011;31270;48.328;10.096;2024-03-23T03:43:05;10.63;;;7.93;;
45548;SDS011;31270;48.328;10.096;2024-03-23T03:45:56;13.57;;;8.73;;
45548;SDS011;31270;48.328;10.096;2024-03-23T03:48:41;10.33;;;8.13;;
45548;SDS011;31270;48.328;10.096;2024-03-23T03:51:25;11.33;;;8.37;;
45548;SDS011;31270;48.328;10.096;2024-03-23T03:54:09;10.77;;;8.57;;
45548;SDS011;31270;48.328;10.096;2024-03-23T03:56:53;10.20;;;8.00;;
45548;SDS011;31270;48.328;10.096;2024-03-23T03:59:37;11.87;;;8.17;;
45548;SDS011;31270;48.328;10.096;2024-03-23T04:02:21;12.23;;;8.80;;
45548;SDS011;31270;48.328;10.096;2024-03-23T04:05:06;12.03;;;8.00;;
45548;SDS011;31270;48.328;10.096;2024-03-23T04:07:51;12.00;;;7.40;;
45548;SDS011;31270;48.328;10.096;2024-03-23T04:10:39;12.10;;;7.90;;
45548;SDS011;31270;48.328;10.096;2024-03-23T04:13:24;14.70;;;8.03;;
45548;SDS011;31270;48.328;10.096;2024-03-23T04:16:08;10.13;;;7.60;;
45548;SDS011;31270;48.328;10.096;2024-03-23T04:18:52;12.03;;;8.00;;
45548;SDS011;31270;48.328;10.096;2024-03-23T04:21:37;10.37;;;8.60;;
45548;SDS011;31270;48.328;10.096;2024-03-23T04:24:22;12.50;;;8.47;;
45548;SDS011;31270;48.328;10.096;2024-03-23T04:27:06;11.07;;;8.03;;
45548;SDS011;31270;48.328;10.096;2024-03-23T04:29:51;11.43;;;9.70;;
45548;SDS011;31270;48.328;10.096;2024-03-23T04:32:37;9.90;;;7.80;;
45548;SDS011;31270;48.328;10.096;2024-03-23T04:35:21;8.87;;;7.47;;
45548;SDS011;31270;48.328;10.096;2024-03-23T04:38:08;10.53;;;8.20;;
45548;SDS011;31270;48.328;10.096;2024-03-23T04:40:56;8.03;;;6.83;;
45548;SDS011;31270;48.328;10.096;2024-03-23T04:43:41;9.10;;;7.23;;
45548;SDS011;31270;48.328;10.096;2024-03-23T04:46:26;10.80;;;7.33;;
45548;SDS011;31270;48.328;10.096;2024-03-23T04:49:10;9.73;;;6.77;;
45548;SDS011;31270;48.328;10.096;2024-03-23T04:51:55;8.33;;;7.20;;
45548;SDS011;31270;48.328;10.096;2024-03-23T04:54:39;10.27;;;6.73;;
45548;SDS011;31270;48.328;10.096;2024-03-23T04:57:26;9.47;;;7.03;;
45548;SDS011;31270;48.328;10.096;2024-03-23T05:00:10;7.87;;;6.37;;
45548;SDS011;31270;48.328;10.096;2024-03-23T05:03:03;7.80;;;5.90;;
45548;SDS011;31270;48.328;10.096;2024-03-23T05:05:48;6.90;;;5.90;;
45548;SDS011;31270;48.328;10.096;2024-03-23T05:08:33;8.53;;;6.27;;
45548;SDS011;31270;48.328;10.096;2024-03-23T05:11:17;6.63;;;5.73;;
45548;SDS011;31270;48.328;10.096;2024-03-23T05:14:01;7.40;;;5.70;;
45548;SDS011;31270;48.328;10.096;2024-03-23T05:16:47;7.53;;;5.33;;
45548;SDS011;31270;48.328;10.096;2024-03-23T05:19:31;8.13;;;5.60;;
45548;SDS011;31270;48.328;10.096;2024-03-23T05:22:15;7.43;;;5.67;;
45548;SDS011;31270;48.328;10.096;2024-03-23T05:25:00;6.80;;;4.97;;
45548;SDS011;31270;48.328;10.096;2024-03-23T05:27:44;6.20;;;5.00;;
45548;SDS011;31270;48.328;10.096;2024-03-23T05:30:28;6.63;;;5.20;;
45548;SDS011;31270;48.328;10.096;2024-03-23T05:33:13;5.70;;;5.07;;
45548;SDS011;31270;48.328;10.096;2024-03-23T05:35:57;5.90;;;4.93;;
45548;SDS011;31270;48.328;10.096;2024-03-23T05:38:42;7.97;;;5.10;;
45548;SDS011;31270;48.328;10.096;2024-03-23T05:41:26;7.10;;;5.43;;
45548;SDS011;31270;48.328;10.096;2024-03-23T05:44:10;8.97;;;5.40;;
45548;SDS011;31270;48.328;10.096;2024-03-23T05:46:54;7.07;;;5.13;;
45548;SDS011;31270;48.328;10.096;2024-03-23T05:49:38;7.80;;;5.50;;
45548;SDS011;31270;48.328;10.096;2024-03-23T05:52:22;6.47;;;4.67;;
45548;SDS011;31270;48.328;10.096;2024-03-23T05:55:08;5.47;;;4.70;;
45548;SDS011;31270;48.328;10.096;2024-03-23T05:57:53;7.47;;;4.90;;
45548;SDS011;31270;48.328;10.096;2024-03-23T06:00:37;6.33;;;5.00;;
45548;SDS011;31270;48.328;10.096;2024-03-23T06:03:21;5.97;;;4.47;;
45548;SDS011;31270;48.328;10.096;2024-03-23T06:06:05;8.97;;;5.53;;
45548;SDS011;31270;48.328;10.096;2024-03-23T06:08:55;5.63;;;4.90;;
45548;SDS011;31270;48.328;10.096;2024-03-23T06:11:39;5.53;;;4.53;;
45548;SDS011;31270;48.328;10.096;2024-03-23T06:14:23;7.67;;;5.00;;
45548;SDS011;31270;48.328;10.096;2024-03-23T06:17:07;6.50;;;4.87;;
45548;SDS011;31270;48.328;10.096;2024-03-23T06:19:51;5.87;;;4.93;;
45548;SDS011;31270;48.328;10.096;2024-03-23T06:22:35;7.97;;;5.07;;
45548;SDS011;31270;48.328;10.096;2024-03-23T06:25:20;8.87;;;5.87;;
45548;SDS011;31270;48.328;10.096;2024-03-23T06:28:04;8.53;;;6.20;;
45548;SDS011;31270;48.328;10.096;2024-03-23T06:30:48;8.63;;;5.40;;
45548;SDS011;31270;48.328;10.096;2024-03-23T06:33:32;7.03;;;5.73;;
45548;SDS011;31270;48.328;10.096;2024-03-23T06:36:16;9.53;;;5.70;;
45548;SDS011;31270;48.328;10.096;2024-03-23T06:39:03;6.73;;;5.03;;
45548;SDS011;31270;48.328;10.096;2024-03-23T06:41:53;6.73;;;5.30;;
45548;SDS011;31270;48.328;10.096;2024-03-23T06:44:38;8.10;;;6.20;;
45548;SDS011;31270;48.328;10.096;2024-03-23T06:47:23;8.73;;;6.37;;
45548;SDS011;31270;48.328;10.096;2024-03-23T06:50:09;9.17;;;5.70;;
45548;SDS011;31270;48.328;10.096;2024-03-23T06:52:53;6.63;;;5.10;;
45548;SDS011;31270;48.328;10.096;2024-03-23T06:55:37;7.10;;;4.30;;
45548;SDS011;31270;48.328;10.096;2024-03-23T06:58:22;6.83;;;4.50;;
45548;SDS011;31270;48.328;10.096;2024-03-23T07:01:07;3.70;;;3.10;;
45548;SDS011;31270;48.328;10.096;2024-03-23T07:03:51;4.17;;;3.00;;
45548;SDS011;31270;48.328;10.096;2024-03-23T07:06:42;4.57;;;2.70;;
45548;SDS011;31270;48.328;10.096;2024-03-23T07:09:29;5.53;;;2.93;;
45548;SDS011;31270;48.328;10.096;2024-03-23T07:12:13;5.77;;;3.50;;
45548;SDS011;31270;48.328;10.096;2024-03-23T07:14:57;3.50;;;3.00;;
45548;SDS011;31270;48.328;10.096;2024-03-23T07:17:42;3.50;;;2.80;;
45548;SDS011;31270;48.328;10.096;2024-03-23T07:20:26;6.27;;;3.47;;
45548;SDS011;31270;48.328;10.096;2024-03-23T07:23:10;4.67;;;3.07;;
45548;SDS011;31270;48.328;10.096;2024-03-23T07:25:58;3.43;;;2.60;;
45548;SDS011;31270;48.328;10.096;2024-03-23T07:28:46;3.30;;;2.77;;
45548;SDS011;31270;48.328;10.096;2024-03-23T07:31:33;2.50;;;2.30;;
45548;SDS011;31270;48.328;10.096;2024-03-23T07:34:17;2.63;;;2.33;;
45548;SDS011;31270;48.328;10.096;2024-03-23T07:37:01;4.03;;;2.70;;
45548;SDS011;31270;48.328;10.096;2024-03-23T07:39:46;3.63;;;2.60;;
45548;SDS011;31270;48.328;10.096;2024-03-23T07:42:29;4.27;;;3.10;;
45548;SDS011;31270;48.328;10.096;2024-03-23T07:45:14;3.50;;;2.83;;
45548;SDS011;31270;48.328;10.096;2024-03-23T07:47:58;4.10;;;3.13;;
45548;SDS011;31270;48.328;10.096;2024-03-23T07:50:42;4.53;;;3.07;;
45548;SDS011;31270;48.328;10.096;2024-03-23T07:53:27;5.07;;;3.33;;
45548;SDS011;31270;48.328;10.096;2024-03-23T07:56:12;4.80;;;3.30;;
45548;SDS011;31270;48.328;10.096;2024-03-23T07:58:59;4.30;;;3.23;;
45548;SDS011;31270;48.328;10.096;2024-03-23T08:01:43;4.63;;;3.33;;
45548;SDS011;31270;48.328;10.096;2024-03-23T08:04:27;4.20;;;2.37;;
45548;SDS011;31270;48.328;10.096;2024-03-23T08:07:11;3.50;;;2.60;;
45548;SDS011;31270;48.328;10.096;2024-03-23T08:09:55;2.30;;;1.63;;
45548;SDS011;31270;48.328;10.096;2024-03-23T08:12:39;2.67;;;1.90;;
45548;SDS011;31270;48.328;10.096;2024-03-23T08:15:24;2.07;;;1.87;;
45548;SDS011;31270;48.328;10.096;2024-03-23T08:18:08;2.07;;;1.40;;
45548;SDS011;31270;48.328;10.096;2024-03-23T08:21:03;1.50;;;1.20;;
45548;SDS011;31270;48.328;10.096;2024-03-23T08:23:48;2.03;;;1.40;;
45548;SDS011;31270;48.328;10.096;2024-03-23T08:26:32;1.10;;;1.00;;
45548;SDS011;31270;48.328;10.096;2024-03-23T08:29:17;1.60;;;1.50;;
45548;SDS011;31270;48.328;10.096;2024-03-23T08:32:01;1.30;;;1.20;;
45548;SDS011;31270;48.328;10.096;2024-03-23T08:34:44;3.07;;;1.50;;
45548;SDS011;31270;48.328;10.096;2024-03-23T08:37:29;1.37;;;1.27;;
45548;SDS011;31270;48.328;10.096;2024-03-23T08:40:13;1.20;;;1.10;;
45548;SDS011;31270;48.328;10.096;2024-03-23T08:42:57;1.13;;;0.97;;
45548;SDS011;31270;48.328;10.096;2024-03-23T08:45:41;5.13;;;3.17;;
45548;SDS011;31270;48.328;10.096;2024-03-23T08:48:25;1.50;;;1.40;;
45548;SDS011;31270;48.328;10.096;2024-03-23T08:51:09;1.30;;;1.20;;
45548;SDS011;31270;48.328;10.096;2024-03-23T08:53:55;0.80;;;0.80;;
45548;SDS011;31270;48.328;10.096;2024-03-23T08:56:39;1.20;;;0.90;;
45548;SDS011;31270;48.328;10.096;2024-03-23T08:59:23;0.90;;;0.90;;
45548;SDS011;31270;48.328;10.096;2024-03-23T09:02:07;0.87;;;0.83;;
45548;SDS011;31270;48.328;10.096;2024-03-23T09:04:52;0.97;;;0.83;;
45548;SDS011;31270;48.328;10.096;2024-03-23T09:07:36;0.80;;;0.80;;
45548;SDS011;31270;48.328;10.096;2024-03-23T09:10:20;1.10;;;1.00;;
45548;SDS011;31270;48.328;10.096;2024-03-23T09:13:06;0.90;;;0.90;;
45548;SDS011;31270;48.328;10.096;2024-03-23T09:15:51;1.43;;;0.93;;
45548;SDS011;31270;48.328;10.096;2024-03-23T09:18:40;1.13;;;0.80;;
45548;SDS011;31270;48.328;10.096;2024-03-23T09:21:24;1.00;;;0.90;;
45548;SDS011;31270;48.328;10.096;2024-03-23T09:24:08;1.20;;;1.10;;
45548;SDS011;31270;48.328;10.096;2024-03-23T09:26:52;1.30;;;1.20;;
45548;SDS011;31270;48.328;10.096;2024-03-23T09:29:36;1.50;;;1.30;;
45548;SDS011;31270;48.328;10.096;2024-03-23T09:32:20;1.70;;;1.20;;
45548;SDS011;31270;48.328;10.096;2024-03-23T09:35:04;1.83;;;1.57;;
45548;SDS011;31270;48.328;10.096;2024-03-23T09:37:49;3.40;;;1.70;;
45548;SDS011;31270;48.328;10.096;2024-03-23T09:40:33;2.20;;;1.53;;
45548;SDS011;31270;48.328;10.096;2024-03-23T09:43:17;4.77;;;2.50;;
45548;SDS011;31270;48.328;10.096;2024-03-23T09:46:02;2.17;;;1.97;;
45548;SDS011;31270;48.328;10.096;2024-03-23T09:48:47;1.70;;;1.60;;
45548;SDS011;31270;48.328;10.096;2024-03-23T09:51:31;2.33;;;1.50;;
45548;SDS011;31270;48.328;10.096;2024-03-23T09:54:15;2.77;;;1.80;;
45548;SDS011;31270;48.328;10.096;2024-03-23T09:57:00;2.83;;;1.90;;
45548;SDS011;31270;48.328;10.096;2024-03-23T09:59:44;2.33;;;1.77;;
45548;SDS011;31270;48.328;10.096;2024-03-23T10:02:28;4.80;;;1.70;;
45548;SDS011;31270;48.328;10.096;2024-03-23T10:05:20;6.60;;;2.20;;
45548;SDS011;31270;48.328;10.096;2024-03-23T10:10:58;4.73;;;2.23;;
45548;SDS011;31270;48.328;10.096;2024-03-23T10:13:57;3.23;;;2.17;;
45548;SDS011;31270;48.328;10.096;2024-03-23T10:16:41;3.53;;;2.23;;
45548;SDS011;31270;48.328;10.096;2024-03-23T10:19:31;3.53;;;2.37;;
45548;SDS011;31270;48.328;10.096;2024-03-23T10:22:22;5.57;;;2.40;;
45548;SDS011;31270;48.328;10.096;2024-03-23T10:25:08;4.87;;;2.67;;
45548;SDS011;31270;48.328;10.096;2024-03-23T10:28:00;3.67;;;2.10;;
45548;SDS011;31270;48.328;10.096;2024-03-23T10:30:45;2.47;;;2.10;;
45548;SDS011;31270;48.328;10.096;2024-03-23T10:33:29;4.43;;;2.20;;
45548;SDS011;31270;48.328;10.096;2024-03-23T10:36:14;4.33;;;2.50;;
45548;SDS011;31270;48.328;10.096;2024-03-23T10:38:58;5.63;;;2.70;;
45548;SDS011;31270;48.328;10.096;2024-03-23T10:41:43;4.40;;;2.73;;
45548;SDS011;31270;48.328;10.096;2024-03-23T10:44:29;5.23;;;2.50;;
45548;SDS011;31270;48.328;10.096;2024-03-23T10:47:14;3.90;;;2.70;;
45548;SDS011;31270;48.328;10.096;2024-03-23T10:49:58;3.93;;;2.83;;
45548;SDS011;31270;48.328;10.096;2024-03-23T10:52:43;3.80;;;3.00;;
45548;SDS011;31270;48.328;10.096;2024-03-23T10:55:30;9.20;;;3.47;;
45548;SDS011;31270;48.328;10.096;2024-03-23T10:58:15;6.30;;;3.33;;
45548;SDS011;31270;48.328;10.096;2024-03-23T11:01:00;5.70;;;3.10;;
45548;SDS011;31270;48.328;10.096;2024-03-23T11:03:46;6.33;;;2.80;;
45548;SDS011;31270;48.328;10.096;2024-03-23T11:06:35;8.43;;;3.67;;
45548;SDS011;31270;48.328;10.096;2024-03-23T11:09:39;7.20;;;3.83;;
45548;SDS011;31270;48.328;10.096;2024-03-23T11:12:25;6.57;;;3.50;;
45548;SDS011;31270;48.328;10.096;2024-03-23T11:15:13;6.30;;;3.53;;
45548;SDS011;31270;48.328;10.096;2024-03-23T11:18:40;10.90;;;3.40;;
45548;SDS011;31270;48.328;10.096;2024-03-23T11:21:08;5.27;;;3.43;;
45548;SDS011;31270;48.328;10.096;2024-03-23T11:23:53;6.23;;;3.50;;
45548;SDS011;31270;48.328;10.096;2024-03-23T11:26:38;6.77;;;3.17;;
45548;SDS011;31270;48.328;10.096;2024-03-23T11:29:22;4.77;;;3.20;;
45548;SDS011;31270;48.328;10.096;2024-03-23T11:32:07;7.90;;;3.70;;
45548;SDS011;31270;48.328;10.096;2024-03-23T11:34:53;6.40;;;3.30;;
45548;SDS011;31270;48.328;10.096;2024-03-23T11:37:37;4.50;;;3.33;;
45548;SDS011;31270;48.328;10.096;2024-03-23T11:40:21;6.73;;;3.47;;
45548;SDS011;31270;48.328;10.096;2024-03-23T11:43:10;8.20;;;3.53;;
45548;SDS011;31270;48.328;10.096;2024-03-23T11:45:56;6.17;;;3.33;;
45548;SDS011;31270;48.328;10.096;2024-03-23T11:48:41;6.63;;;3.30;;
45548;SDS011;31270;48.328;10.096;2024-03-23T11:51:34;7.47;;;3.50;;
45548;SDS011;31270;48.328;10.096;2024-03-23T11:54:25;7.20;;;3.63;;
45548;SDS011;31270;48.328;10.096;2024-03-23T11:57:10;7.13;;;3.83;;
45548;SDS011;31270;48.328;10.096;2024-03-23T11:59:54;8.83;;;4.43;;
45548;SDS011;31270;48.328;10.096;2024-03-23T12:02:38;11.00;;;3.60;;
45548;SDS011;31270;48.328;10.096;2024-03-23T12:05:22;5.80;;;3.00;;
45548;SDS011;31270;48.328;10.096;2024-03-23T12:08:16;8.17;;;3.40;;
45548;SDS011;31270;48.328;10.096;2024-03-23T12:11:08;4.90;;;2.70;;
45548;SDS011;31270;48.328;10.096;2024-03-23T12:13:56;3.97;;;2.03;;
45548;SDS011;31270;48.328;10.096;2024-03-23T12:16:43;4.93;;;2.10;;
45548;SDS011;31270;48.328;10.096;2024-03-23T12:19:27;3.47;;;1.63;;
45548;SDS011;31270;48.328;10.096;2024-03-23T12:22:11;4.30;;;1.63;;
45548;SDS011;31270;48.328;10.096;2024-03-23T12:24:55;2.77;;;1.67;;
45548;SDS011;31270;48.328;10.096;2024-03-23T12:27:40;5.80;;;2.07;;
45548;SDS011;31270;48.328;10.096;2024-03-23T12:30:24;2.80;;;1.80;;
45548;SDS011;31270;48.328;10.096;2024-03-23T12:33:08;2.67;;;1.80;;
45548;SDS011;31270;48.328;10.096;2024-03-23T12:35:52;2.57;;;1.87;;
45548;SDS011;31270;48.328;10.096;2024-03-23T12:38:37;2.83;;;2.00;;
45548;SDS011;31270;48.328;10.096;2024-03-23T12:41:21;4.47;;;1.87;;
45548;SDS011;31270;48.328;10.096;2024-03-23T12:44:07;6.23;;;1.77;;
45548;SDS011;31270;48.328;10.096;2024-03-23T12:46:53;4.50;;;2.10;;
45548;SDS011;31270;48.328;10.096;2024-03-23T12:49:37;7.97;;;2.03;;
45548;SDS011;31270;48.328;10.096;2024-03-23T12:52:21;4.00;;;2.03;;
45548;SDS011;31270;48.328;10.096;2024-03-23T12:55:07;5.37;;;2.27;;
45548;SDS011;31270;48.328;10.096;2024-03-23T12:57:51;2.93;;;2.20;;
45548;SDS011;31270;48.328;10.096;2024-03-23T13:00:35;7.37;;;2.33;;
45548;SDS011;31270;48.328;10.096;2024-03-23T13:03:19;7.87;;;2.17;;
45548;SDS011;31270;48.328;10.096;2024-03-23T13:06:03;7.60;;;2.40;;
45548;SDS011;31270;48.328;10.096;2024-03-23T13:08:51;3.40;;;1.97;;
45548;SDS011;31270;48.328;10.096;2024-03-23T13:11:38;2.83;;;1.90;;
45548;SDS011;31270;48.328;10.096;2024-03-23T13:14:22;6.27;;;2.10;;
45548;SDS011;31270;48.328;10.096;2024-03-23T13:17:06;3.87;;;1.90;;
45548;SDS011;31270;48.328;10.096;2024-03-23T13:19:51;3.87;;;1.90;;
45548;SDS011;31270;48.328;10.096;2024-03-23T13:22:35;5.53;;;2.03;;
45548;SDS011;31270;48.328;10.096;2024-03-23T13:25:19;6.13;;;2.33;;
45548;SDS011;31270;48.328;10.096;2024-03-23T13:28:03;6.43;;;2.37;;
45548;SDS011;31270;48.328;10.096;2024-03-23T13:30:55;6.93;;;3.00;;
45548;SDS011;31270;48.328;10.096;2024-03-23T13:33:41;5.90;;;2.67;;
45548;SDS011;31270;48.328;10.096;2024-03-23T13:36:27;6.63;;;3.07;;
45548;SDS011;31270;48.328;10.096;2024-03-23T13:39:11;5.27;;;2.70;;
45548;SDS011;31270;48.328;10.096;2024-03-23T13:41:56;6.07;;;2.40;;
45548;SDS011;31270;48.328;10.096;2024-03-23T13:44:40;8.03;;;2.60;;
45548;SDS011;31270;48.328;10.096;2024-03-23T13:47:24;8.13;;;2.97;;
45548;SDS011;31270;48.328;10.096;2024-03-23T13:50:08;7.20;;;3.20;;
45548;SDS011;31270;48.328;10.096;2024-03-23T13:52:53;6.07;;;2.93;;
45548;SDS011;31270;48.328;10.096;2024-03-23T13:55:37;6.93;;;2.80;;
45548;SDS011;31270;48.328;10.096;2024-03-23T13:58:21;3.53;;;2.57;;
45548;SDS011;31270;48.328;10.096;2024-03-23T14:01:05;3.13;;;2.43;;
45548;SDS011;31270;48.328;10.096;2024-03-23T14:03:50;4.73;;;2.60;;
45548;SDS011;31270;48.328;10.096;2024-03-23T14:06:34;6.20;;;2.83;;
45548;SDS011;31270;48.328;10.096;2024-03-23T14:09:18;4.47;;;2.83;;
45548;SDS011;31270;48.328;10.096;2024-03-23T14:12:06;7.27;;;2.60;;
45548;SDS011;31270;48.328;10.096;2024-03-23T14:14:52;7.07;;;3.00;;
45548;SDS011;31270;48.328;10.096;2024-03-23T14:17:37;4.60;;;2.50;;
45548;SDS011;31270;48.328;10.096;2024-03-23T14:20:22;7.60;;;2.90;;
45548;SDS011;31270;48.328;10.096;2024-03-23T14:23:09;4.90;;;2.73;;
45548;SDS011;31270;48.328;10.096;2024-03-23T14:25:53;5.37;;;2.30;;
45548;SDS011;31270;48.328;10.096;2024-03-23T14:28:38;5.80;;;2.20;;
45548;SDS011;31270;48.328;10.096;2024-03-23T14:31:24;6.40;;;2.83;;
45548;SDS011;31270;48.328;10.096;2024-03-23T14:34:08;4.60;;;2.97;;
45548;SDS011;31270;48.328;10.096;2024-03-23T14:36:53;4.93;;;2.07;;
45548;SDS011;31270;48.328;10.096;2024-03-23T14:39:37;5.57;;;2.20;;
45548;SDS011;31270;48.328;10.096;2024-03-23T14:42:23;4.53;;;2.13;;
45548;SDS011;31270;48.328;10.096;2024-03-23T14:45:07;3.07;;;2.10;;
45548;SDS011;31270;48.328;10.096;2024-03-23T14:47:52;6.57;;;2.00;;
45548;SDS011;31270;48.328;10.096;2024-03-23T14:50:36;5.03;;;1.97;;
45548;SDS011;31270;48.328;10.096;2024-03-23T14:53:20;5.33;;;2.20;;
45548;SDS011;31270;48.328;10.096;2024-03-23T14:56:04;5.97;;;2.37;;
45548;SDS011;31270;48.328;10.096;2024-03-23T14:58:52;4.87;;;2.17;;
45548;SDS011;31270;48.328;10.096;2024-03-23T15:01:37;6.37;;;2.37;;
45548;SDS011;31270;48.328;10.096;2024-03-23T15:04:21;4.57;;;2.00;;
45548;SDS011;31270;48.328;10.096;2024-03-23T15:07:05;5.47;;;2.17;;
45548;SDS011;31270;48.328;10.096;2024-03-23T15:09:49;6.03;;;2.40;;
45548;SDS011;31270;48.328;10.096;2024-03-23T15:12:33;5.23;;;2.20;;
45548;SDS011;31270;48.328;10.096;2024-03-23T15:15:17;4.97;;;2.00;;
45548;SDS011;31270;48.328;10.096;2024-03-23T15:18:01;9.60;;;2.00;;
45548;SDS011;31270;48.328;10.096;2024-03-23T15:20:52;3.27;;;1.63;;
45548;SDS011;31270;48.328;10.096;2024-03-23T15:23:40;7.87;;;2.03;;
45548;SDS011;31270;48.328;10.096;2024-03-23T15:26:27;2.63;;;1.57;;
45548;SDS011;31270;48.328;10.096;2024-03-23T15:29:11;4.43;;;1.73;;
45548;SDS011;31270;48.328;10.096;2024-03-23T15:31:58;3.70;;;1.57;;
45548;SDS011;31270;48.328;10.096;2024-03-23T15:34:44;3.90;;;1.63;;
45548;SDS011;31270;48.328;10.096;2024-03-23T15:37:28;5.10;;;1.80;;
45548;SDS011;31270;48.328;10.096;2024-03-23T15:40:15;4.03;;;1.50;;
45548;SDS011;31270;48.328;10.096;2024-03-23T15:42:59;4.03;;;2.70;;
45548;SDS011;31270;48.328;10.096;2024-03-23T15:45:44;7.03;;;2.00;;
45548;SDS011;31270;48.328;10.096;2024-03-23T15:48:36;3.70;;;2.00;;
45548;SDS011;31270;48.328;10.096;2024-03-23T15:51:20;4.73;;;2.00;;
45548;SDS011;31270;48.328;10.096;2024-03-23T15:54:05;7.73;;;2.30;;
45548;SDS011;31270;48.328;10.096;2024-03-23T15:56:49;2.83;;;1.87;;
45548;SDS011;31270;48.328;10.096;2024-03-23T15:59:33;3.37;;;2.00;;
45548;SDS011;31270;48.328;10.096;2024-03-23T16:02:17;4.83;;;2.10;;
45548;SDS011;31270;48.328;10.096;2024-03-23T16:05:02;4.03;;;1.80;;
45548;SDS011;31270;48.328;10.096;2024-03-23T16:07:47;5.27;;;1.50;;
45548;SDS011;31270;48.328;10.096;2024-03-23T16:10:31;5.03;;;2.00;;
45548;SDS011;31270;48.328;10.096;2024-03-23T16:13:16;17.37;;;2.30;;
45548;SDS011;31270;48.328;10.096;2024-03-23T16:16:04;2.20;;;1.30;;
45548;SDS011;31270;48.328;10.096;2024-03-23T16:18:53;2.40;;;1.20;;
45548;SDS011;31270;48.328;10.096;2024-03-23T16:21:38;4.27;;;1.13;;
45548;SDS011;31270;48.328;10.096;2024-03-23T16:24:22;2.97;;;1.40;;
45548;SDS011;31270;48.328;10.096;2024-03-23T16:27:06;1.63;;;1.30;;
45548;SDS011;31270;48.328;10.096;2024-03-23T16:29:50;4.30;;;1.50;;
45548;SDS011;31270;48.328;10.096;2024-03-23T16:32:34;2.30;;;1.30;;
45548;SDS011;31270;48.328;10.096;2024-03-23T16:35:20;1.90;;;1.20;;
45548;SDS011;31270;48.328;10.096;2024-03-23T16:38:04;1.43;;;1.33;;
45548;SDS011;31270;48.328;10.096;2024-03-23T16:40:58;1.47;;;1.37;;
45548;SDS011;31270;48.328;10.096;2024-03-23T16:43:44;1.80;;;1.57;;
45548;SDS011;31270;48.328;10.096;2024-03-23T16:46:28;3.50;;;1.60;;
45548;SDS011;31270;48.328;10.096;2024-03-23T16:49:12;3.90;;;1.57;;
45548;SDS011;31270;48.328;10.096;2024-03-23T16:51:56;4.40;;;1.97;;
45548;SDS011;31270;48.328;10.096;2024-03-23T16:54:40;3.27;;;1.90;;
45548;SDS011;31270;48.328;10.096;2024-03-23T16:57:24;3.37;;;1.97;;
45548;SDS011;31270;48.328;10.096;2024-03-23T17:00:09;3.50;;;1.90;;
45548;SDS011;31270;48.328;10.096;2024-03-23T17:02:55;2.63;;;1.23;;
45548;SDS011;31270;48.328;10.096;2024-03-23T17:05:39;3.50;;;1.70;;
45548;SDS011;31270;48.328;10.096;2024-03-23T17:08:23;3.80;;;1.70;;
45548;SDS011;31270;48.328;10.096;2024-03-23T17:11:07;2.33;;;1.83;;
45548;SDS011;31270;48.328;10.096;2024-03-23T17:13:53;2.63;;;1.67;;
45548;SDS011;31270;48.328;10.096;2024-03-23T17:16:39;3.60;;;1.50;;